Middletown, Vermont
Current Conditions -  °F | °C
As of 11:14 AM on Tuesday 21 Oct 2014 (Local Time) from KVSF Reporting Station
Light Rain Light Rain  
Wind Chill: 47°   Ceiling: 2400
Heat Index: 47°   Visibility: 3mi
Dew Point: 45°   Wind: 0mph
Humidity: 93%   Direction: NA
Pressure: 30"   Gusts: NA
Location:  43.2811°N, 72.6352°W
Report Text: KVSF 211514Z AUTO 00000KT 3SM -RA BR FEW004 OVC024 08/07 A3000 RMK AO2 P0001 T00830072
Loading
Personal Weather Stations






























Interactive Weather Map New forecast layout! Learn more

10-Day Weather Forecast

Advertisements
Track Severe Weather on mobile